Skip Navigation Links Skip Navigation Links

Current Weather

Ahwaz, Iran

For information only: do not use for flight planning or navigation.
Latest weather
Observation time Sunday, May 31, 2020 4:30 PM +0430
Local time Sunday, May 31, 2020 4:45 PM +0430
Flight conditions Visual Meteorological Conditions
Winds
Wind direction West (280°)
Wind speed 9 mph
Visibility 6.2 mi.
Sky condition
Ceiling unlimited
Sky clear
Temperature 115°F
Dewpoint 41°F
Altimeter 29.59 in.Hg
Derived measurements
Relative humidity 9%
Heat index 115°F
Density altitude 4019 ft.
Remarks
Ceiling and visibility OK.
METAR OIAW 311200Z 28008KT CAVOK 46/05 Q1002

Settings

Location code

InnerDrive.Weather 4.0.6770.0 Release CLR 4.0.30319.42000
Copyright ©2018 Inner Drive Technology. All rights reserved. Portions Copyright ©1986-2018 David Braverman.

Find weather

Site navigation


Skip Navigation Links

Place info

Page info

PayPal - The safer, easier way to pay online!

Return home.

Copyright ©2020 Inner Drive Technology. Purveyors of fine, hand-crafted computer software. Page printed 2020-05-31T12:15:36 UTC.